sensor_id;sensor_type;location;lat;lon;timestamp;temperature;humidity
16666;DHT22;8446;50.998;6.250;2023-07-30T00:02:15;14.90;99.90
16666;DHT22;8446;50.998;6.250;2023-07-30T00:04:41;14.90;99.90
16666;DHT22;8446;50.998;6.250;2023-07-30T00:07:08;14.90;99.90
16666;DHT22;8446;50.998;6.250;2023-07-30T00:09:37;14.80;99.90
16666;DHT22;8446;50.998;6.250;2023-07-30T00:12:05;14.70;99.90
16666;DHT22;8446;50.998;6.250;2023-07-30T00:14:32;14.60;99.90
16666;DHT22;8446;50.998;6.250;2023-07-30T00:16:58;14.30;99.90
16666;DHT22;8446;50.998;6.250;2023-07-30T00:19:25;14.30;99.90
16666;DHT22;8446;50.998;6.250;2023-07-30T00:21:52;14.30;99.90
16666;DHT22;8446;50.998;6.250;2023-07-30T00:24:19;14.30;99.90
16666;DHT22;8446;50.998;6.250;2023-07-30T00:26:47;14.30;99.90
16666;DHT22;8446;50.998;6.250;2023-07-30T00:29:14;14.40;99.90
16666;DHT22;8446;50.998;6.250;2023-07-30T00:31:41;14.60;99.90
16666;DHT22;8446;50.998;6.250;2023-07-30T00:34:07;14.80;99.90
16666;DHT22;8446;50.998;6.250;2023-07-30T00:36:34;14.90;99.90
16666;DHT22;8446;50.998;6.250;2023-07-30T00:39:01;15.10;99.90
16666;DHT22;8446;50.998;6.250;2023-07-30T00:41:28;15.10;99.90
16666;DHT22;8446;50.998;6.250;2023-07-30T00:43:57;15.10;99.90
16666;DHT22;8446;50.998;6.250;2023-07-30T00:46:24;15.10;99.90
16666;DHT22;8446;50.998;6.250;2023-07-30T00:48:51;15.10;99.90
16666;DHT22;8446;50.998;6.250;2023-07-30T00:51:19;15.20;99.90
16666;DHT22;8446;50.998;6.250;2023-07-30T00:53:46;15.40;99.90
16666;DHT22;8446;50.998;6.250;2023-07-30T00:56:14;15.50;99.90
16666;DHT22;8446;50.998;6.250;2023-07-30T00:58:41;15.70;99.90
16666;DHT22;8446;50.998;6.250;2023-07-30T01:01:11;15.80;99.90
16666;DHT22;8446;50.998;6.250;2023-07-30T01:03:39;15.90;99.90
16666;DHT22;8446;50.998;6.250;2023-07-30T01:06:06;15.90;99.90
16666;DHT22;8446;50.998;6.250;2023-07-30T01:08:33;16.10;99.90
16666;DHT22;8446;50.998;6.250;2023-07-30T01:11:01;16.10;99.90
16666;DHT22;8446;50.998;6.250;2023-07-30T01:13:29;16.10;99.90
16666;DHT22;8446;50.998;6.250;2023-07-30T01:15:57;16.00;99.90
16666;DHT22;8446;50.998;6.250;2023-07-30T01:18:25;16.00;99.90
16666;DHT22;8446;50.998;6.250;2023-07-30T01:20:57;16.00;99.90
16666;DHT22;8446;50.998;6.250;2023-07-30T01:23:25;16.00;99.90
16666;DHT22;8446;50.998;6.250;2023-07-30T01:25:59;16.10;99.90
16666;DHT22;8446;50.998;6.250;2023-07-30T01:28:27;16.10;99.90
16666;DHT22;8446;50.998;6.250;2023-07-30T01:30:54;16.20;99.90
16666;DHT22;8446;50.998;6.250;2023-07-30T01:33:22;16.10;99.90
16666;DHT22;8446;50.998;6.250;2023-07-30T01:35:49;16.10;99.90
16666;DHT22;8446;50.998;6.250;2023-07-30T01:38:18;16.10;99.90
16666;DHT22;8446;50.998;6.250;2023-07-30T01:40:44;16.20;99.90
16666;DHT22;8446;50.998;6.250;2023-07-30T01:43:12;16.20;99.90
16666;DHT22;8446;50.998;6.250;2023-07-30T01:45:38;16.30;99.90
16666;DHT22;8446;50.998;6.250;2023-07-30T01:48:06;16.20;99.90
16666;DHT22;8446;50.998;6.250;2023-07-30T01:50:33;16.20;99.90
16666;DHT22;8446;50.998;6.250;2023-07-30T01:52:59;16.30;99.90
16666;DHT22;8446;50.998;6.250;2023-07-30T01:55:28;16.30;99.90
16666;DHT22;8446;50.998;6.250;2023-07-30T01:57:54;16.20;99.90
16666;DHT22;8446;50.998;6.250;2023-07-30T02:00:21;16.20;99.90
16666;DHT22;8446;50.998;6.250;2023-07-30T02:02:48;16.30;99.90
16666;DHT22;8446;50.998;6.250;2023-07-30T02:05:15;16.20;99.90
16666;DHT22;8446;50.998;6.250;2023-07-30T02:07:41;16.20;99.90
16666;DHT22;8446;50.998;6.250;2023-07-30T02:10:09;16.20;99.90
16666;DHT22;8446;50.998;6.250;2023-07-30T02:12:37;16.00;99.90
16666;DHT22;8446;50.998;6.250;2023-07-30T02:15:05;15.90;99.90
16666;DHT22;8446;50.998;6.250;2023-07-30T02:17:32;15.80;99.90
16666;DHT22;8446;50.998;6.250;2023-07-30T02:19:58;15.80;99.90
16666;DHT22;8446;50.998;6.250;2023-07-30T02:22:25;15.70;99.90
16666;DHT22;8446;50.998;6.250;2023-07-30T02:24:52;15.80;99.90
16666;DHT22;8446;50.998;6.250;2023-07-30T02:27:19;15.80;99.90
16666;DHT22;8446;50.998;6.250;2023-07-30T02:29:47;15.80;99.90
16666;DHT22;8446;50.998;6.250;2023-07-30T02:32:13;15.90;99.90
16666;DHT22;8446;50.998;6.250;2023-07-30T02:34:40;15.90;99.90
16666;DHT22;8446;50.998;6.250;2023-07-30T02:37:07;15.80;99.90
16666;DHT22;8446;50.998;6.250;2023-07-30T02:39:34;15.90;99.90
16666;DHT22;8446;50.998;6.250;2023-07-30T02:42:00;15.90;99.90
16666;DHT22;8446;50.998;6.250;2023-07-30T02:44:27;16.00;99.90
16666;DHT22;8446;50.998;6.250;2023-07-30T02:46:55;15.90;99.90
16666;DHT22;8446;50.998;6.250;2023-07-30T02:49:22;15.90;99.90
16666;DHT22;8446;50.998;6.250;2023-07-30T02:51:49;15.80;99.90
16666;DHT22;8446;50.998;6.250;2023-07-30T02:54:16;15.80;99.90
16666;DHT22;8446;50.998;6.250;2023-07-30T02:56:45;15.50;99.90
16666;DHT22;8446;50.998;6.250;2023-07-30T02:59:12;15.40;99.90
16666;DHT22;8446;50.998;6.250;2023-07-30T03:01:38;15.30;99.90
16666;DHT22;8446;50.998;6.250;2023-07-30T03:04:06;15.30;99.90
16666;DHT22;8446;50.998;6.250;2023-07-30T03:06:33;15.30;99.90
16666;DHT22;8446;50.998;6.250;2023-07-30T03:09:00;15.30;99.90
16666;DHT22;8446;50.998;6.250;2023-07-30T03:11:28;15.10;99.90
16666;DHT22;8446;50.998;6.250;2023-07-30T03:13:54;14.90;99.90
16666;DHT22;8446;50.998;6.250;2023-07-30T03:16:21;14.90;99.90
16666;DHT22;8446;50.998;6.250;2023-07-30T03:18:48;14.80;99.90
16666;DHT22;8446;50.998;6.250;2023-07-30T03:21:16;14.60;99.90
16666;DHT22;8446;50.998;6.250;2023-07-30T03:23:43;14.40;99.90
16666;DHT22;8446;50.998;6.250;2023-07-30T03:26:10;14.40;99.90
16666;DHT22;8446;50.998;6.250;2023-07-30T03:28:38;14.40;99.90
16666;DHT22;8446;50.998;6.250;2023-07-30T03:31:05;14.40;99.90
16666;DHT22;8446;50.998;6.250;2023-07-30T03:33:32;14.40;99.90
16666;DHT22;8446;50.998;6.250;2023-07-30T03:35:59;14.40;99.90
16666;DHT22;8446;50.998;6.250;2023-07-30T03:38:27;14.40;99.90
16666;DHT22;8446;50.998;6.250;2023-07-30T03:40:54;14.40;99.90
16666;DHT22;8446;50.998;6.250;2023-07-30T03:43:21;14.50;99.90
16666;DHT22;8446;50.998;6.250;2023-07-30T03:45:48;14.60;99.90
16666;DHT22;8446;50.998;6.250;2023-07-30T03:48:14;14.70;99.90
16666;DHT22;8446;50.998;6.250;2023-07-30T03:50:41;14.80;99.90
16666;DHT22;8446;50.998;6.250;2023-07-30T03:53:08;14.70;99.90
16666;DHT22;8446;50.998;6.250;2023-07-30T03:55:36;14.70;99.90
16666;DHT22;8446;50.998;6.250;2023-07-30T03:58:03;14.70;99.90
16666;DHT22;8446;50.998;6.250;2023-07-30T04:00:30;14.80;99.90
16666;DHT22;8446;50.998;6.250;2023-07-30T04:02:56;14.80;99.90
16666;DHT22;8446;50.998;6.250;2023-07-30T04:05:23;14.90;99.90
16666;DHT22;8446;50.998;6.250;2023-07-30T04:07:50;14.80;99.90
16666;DHT22;8446;50.998;6.250;2023-07-30T04:10:17;14.90;99.90
16666;DHT22;8446;50.998;6.250;2023-07-30T04:12:45;14.90;99.90
16666;DHT22;8446;50.998;6.250;2023-07-30T04:15:12;15.00;99.90
16666;DHT22;8446;50.998;6.250;2023-07-30T04:17:39;15.00;99.90
16666;DHT22;8446;50.998;6.250;2023-07-30T04:20:07;15.00;99.90
16666;DHT22;8446;50.998;6.250;2023-07-30T04:22:34;14.70;99.90
16666;DHT22;8446;50.998;6.250;2023-07-30T04:25:01;14.50;99.90
16666;DHT22;8446;50.998;6.250;2023-07-30T04:27:28;14.50;99.90
16666;DHT22;8446;50.998;6.250;2023-07-30T04:29:56;14.30;99.90
16666;DHT22;8446;50.998;6.250;2023-07-30T04:32:23;14.10;99.90
16666;DHT22;8446;50.998;6.250;2023-07-30T04:34:49;14.20;99.90
16666;DHT22;8446;50.998;6.250;2023-07-30T04:37:16;14.10;99.90
16666;DHT22;8446;50.998;6.250;2023-07-30T04:39:43;14.10;99.90
16666;DHT22;8446;50.998;6.250;2023-07-30T04:42:10;14.10;99.90
16666;DHT22;8446;50.998;6.250;2023-07-30T04:44:38;14.10;99.90
16666;DHT22;8446;50.998;6.250;2023-07-30T04:47:07;14.10;99.90
16666;DHT22;8446;50.998;6.250;2023-07-30T04:49:34;14.10;99.90
16666;DHT22;8446;50.998;6.250;2023-07-30T04:52:02;14.10;99.90
16666;DHT22;8446;50.998;6.250;2023-07-30T04:54:29;14.10;99.90
16666;DHT22;8446;50.998;6.250;2023-07-30T04:56:56;14.10;99.90
16666;DHT22;8446;50.998;6.250;2023-07-30T04:59:23;14.10;99.90
16666;DHT22;8446;50.998;6.250;2023-07-30T05:01:50;14.10;99.90
16666;DHT22;8446;50.998;6.250;2023-07-30T05:04:18;14.10;99.90
16666;DHT22;8446;50.998;6.250;2023-07-30T05:06:44;14.10;99.90
16666;DHT22;8446;50.998;6.250;2023-07-30T05:09:11;14.10;99.90
16666;DHT22;8446;50.998;6.250;2023-07-30T05:11:39;14.00;99.90
16666;DHT22;8446;50.998;6.250;2023-07-30T05:14:07;14.10;99.90
16666;DHT22;8446;50.998;6.250;2023-07-30T05:16:33;14.10;99.90
16666;DHT22;8446;50.998;6.250;2023-07-30T05:19:01;14.10;99.90
16666;DHT22;8446;50.998;6.250;2023-07-30T05:21:29;14.10;99.90
16666;DHT22;8446;50.998;6.250;2023-07-30T05:23:56;14.10;99.90
16666;DHT22;8446;50.998;6.250;2023-07-30T05:26:23;14.20;99.90
16666;DHT22;8446;50.998;6.250;2023-07-30T05:28:50;14.20;99.90
16666;DHT22;8446;50.998;6.250;2023-07-30T05:31:17;14.20;99.90
16666;DHT22;8446;50.998;6.250;2023-07-30T05:33:44;14.30;99.90
16666;DHT22;8446;50.998;6.250;2023-07-30T05:36:10;14.30;99.90
16666;DHT22;8446;50.998;6.250;2023-07-30T05:38:38;14.40;99.90
16666;DHT22;8446;50.998;6.250;2023-07-30T05:41:05;14.40;99.90
16666;DHT22;8446;50.998;6.250;2023-07-30T05:43:32;14.50;99.90
16666;DHT22;8446;50.998;6.250;2023-07-30T05:45:59;14.50;99.90
16666;DHT22;8446;50.998;6.250;2023-07-30T05:48:25;14.60;99.90
16666;DHT22;8446;50.998;6.250;2023-07-30T05:50:52;14.70;99.90
16666;DHT22;8446;50.998;6.250;2023-07-30T05:53:19;14.80;99.90
16666;DHT22;8446;50.998;6.250;2023-07-30T05:55:47;14.90;99.90
16666;DHT22;8446;50.998;6.250;2023-07-30T05:58:14;14.90;99.90
16666;DHT22;8446;50.998;6.250;2023-07-30T06:00:41;15.00;99.90
16666;DHT22;8446;50.998;6.250;2023-07-30T06:03:07;15.00;99.90
16666;DHT22;8446;50.998;6.250;2023-07-30T06:05:39;15.00;99.90
16666;DHT22;8446;50.998;6.250;2023-07-30T06:08:06;15.10;99.90
16666;DHT22;8446;50.998;6.250;2023-07-30T06:10:34;15.10;99.90
16666;DHT22;8446;50.998;6.250;2023-07-30T06:13:03;15.20;99.90
16666;DHT22;8446;50.998;6.250;2023-07-30T06:15:30;15.20;99.90
16666;DHT22;8446;50.998;6.250;2023-07-30T06:17:57;15.20;99.90
16666;DHT22;8446;50.998;6.250;2023-07-30T06:20:24;15.20;99.90
16666;DHT22;8446;50.998;6.250;2023-07-30T06:22:50;15.30;99.90
16666;DHT22;8446;50.998;6.250;2023-07-30T06:25:17;15.20;99.90
16666;DHT22;8446;50.998;6.250;2023-07-30T06:27:44;15.30;99.90
16666;DHT22;8446;50.998;6.250;2023-07-30T06:30:12;15.40;99.90
16666;DHT22;8446;50.998;6.250;2023-07-30T06:32:39;15.40;99.90
16666;DHT22;8446;50.998;6.250;2023-07-30T06:35:07;15.40;99.90
16666;DHT22;8446;50.998;6.250;2023-07-30T06:37:34;15.40;99.90
16666;DHT22;8446;50.998;6.250;2023-07-30T06:40:00;15.40;99.90
16666;DHT22;8446;50.998;6.250;2023-07-30T06:42:29;15.50;99.90
16666;DHT22;8446;50.998;6.250;2023-07-30T06:44:56;15.50;99.90
16666;DHT22;8446;50.998;6.250;2023-07-30T06:47:24;15.50;99.90
16666;DHT22;8446;50.998;6.250;2023-07-30T06:49:51;15.60;99.90
16666;DHT22;8446;50.998;6.250;2023-07-30T06:52:18;15.60;99.90
16666;DHT22;8446;50.998;6.250;2023-07-30T06:54:45;15.60;99.90
16666;DHT22;8446;50.998;6.250;2023-07-30T06:57:12;15.60;99.90
16666;DHT22;8446;50.998;6.250;2023-07-30T06:59:39;15.70;99.90
16666;DHT22;8446;50.998;6.250;2023-07-30T07:02:06;15.70;99.90
16666;DHT22;8446;50.998;6.250;2023-07-30T07:04:34;15.70;99.90
16666;DHT22;8446;50.998;6.250;2023-07-30T07:07:01;15.70;99.90
16666;DHT22;8446;50.998;6.250;2023-07-30T07:09:29;15.70;99.90
16666;DHT22;8446;50.998;6.250;2023-07-30T07:11:56;15.80;99.90
16666;DHT22;8446;50.998;6.250;2023-07-30T07:14:22;15.70;99.90
16666;DHT22;8446;50.998;6.250;2023-07-30T07:16:49;15.70;99.90
16666;DHT22;8446;50.998;6.250;2023-07-30T07:19:16;15.80;99.90
16666;DHT22;8446;50.998;6.250;2023-07-30T07:21:44;15.80;99.90
16666;DHT22;8446;50.998;6.250;2023-07-30T07:24:11;15.80;99.90
16666;DHT22;8446;50.998;6.250;2023-07-30T07:26:37;15.80;99.90
16666;DHT22;8446;50.998;6.250;2023-07-30T07:29:04;15.80;99.90
16666;DHT22;8446;50.998;6.250;2023-07-30T07:31:31;15.90;99.90
16666;DHT22;8446;50.998;6.250;2023-07-30T07:33:58;15.90;99.90
16666;DHT22;8446;50.998;6.250;2023-07-30T07:36:24;15.90;99.90
16666;DHT22;8446;50.998;6.250;2023-07-30T07:38:53;15.90;99.90
16666;DHT22;8446;50.998;6.250;2023-07-30T07:41:19;15.90;99.90
16666;DHT22;8446;50.998;6.250;2023-07-30T07:43:47;16.00;99.90
16666;DHT22;8446;50.998;6.250;2023-07-30T07:46:14;16.00;99.90
16666;DHT22;8446;50.998;6.250;2023-07-30T07:48:42;16.10;99.90
16666;DHT22;8446;50.998;6.250;2023-07-30T07:51:10;16.10;99.90
16666;DHT22;8446;50.998;6.250;2023-07-30T07:53:37;16.10;99.90
16666;DHT22;8446;50.998;6.250;2023-07-30T07:56:06;16.10;99.90
16666;DHT22;8446;50.998;6.250;2023-07-30T07:58:32;16.10;99.90
16666;DHT22;8446;50.998;6.250;2023-07-30T08:01:00;16.10;99.90
16666;DHT22;8446;50.998;6.250;2023-07-30T08:03:27;16.10;99.90
16666;DHT22;8446;50.998;6.250;2023-07-30T08:05:54;16.10;99.90
16666;DHT22;8446;50.998;6.250;2023-07-30T08:08:21;16.10;99.90
16666;DHT22;8446;50.998;6.250;2023-07-30T08:10:48;16.20;99.90
16666;DHT22;8446;50.998;6.250;2023-07-30T08:13:16;16.20;99.90
16666;DHT22;8446;50.998;6.250;2023-07-30T08:15:43;16.20;99.90
16666;DHT22;8446;50.998;6.250;2023-07-30T08:18:10;16.20;99.90
16666;DHT22;8446;50.998;6.250;2023-07-30T08:20:37;16.20;99.90
16666;DHT22;8446;50.998;6.250;2023-07-30T08:23:04;16.30;99.90
16666;DHT22;8446;50.998;6.250;2023-07-30T08:25:33;16.40;99.90
16666;DHT22;8446;50.998;6.250;2023-07-30T08:27:59;16.80;99.90
16666;DHT22;8446;50.998;6.250;2023-07-30T08:30:27;16.90;99.90
16666;DHT22;8446;50.998;6.250;2023-07-30T08:32:54;16.90;99.90
16666;DHT22;8446;50.998;6.250;2023-07-30T08:35:21;17.00;99.90
16666;DHT22;8446;50.998;6.250;2023-07-30T08:37:48;16.90;99.90
16666;DHT22;8446;50.998;6.250;2023-07-30T08:40:15;16.90;99.90
16666;DHT22;8446;50.998;6.250;2023-07-30T08:42:41;16.70;99.90
16666;DHT22;8446;50.998;6.250;2023-07-30T08:45:09;16.60;99.90
16666;DHT22;8446;50.998;6.250;2023-07-30T08:47:39;16.70;99.90
16666;DHT22;8446;50.998;6.250;2023-07-30T08:50:06;16.60;99.90
16666;DHT22;8446;50.998;6.250;2023-07-30T08:52:34;16.60;99.90
16666;DHT22;8446;50.998;6.250;2023-07-30T08:55:02;16.70;99.90
16666;DHT22;8446;50.998;6.250;2023-07-30T08:57:29;16.60;99.90
16666;DHT22;8446;50.998;6.250;2023-07-30T09:00:02;16.70;99.90
16666;DHT22;8446;50.998;6.250;2023-07-30T09:02:33;16.80;99.90
16666;DHT22;8446;50.998;6.250;2023-07-30T09:05:03;16.90;99.90
16666;DHT22;8446;50.998;6.250;2023-07-30T09:07:31;17.80;99.90
16666;DHT22;8446;50.998;6.250;2023-07-30T09:09:58;17.70;99.90
16666;DHT22;8446;50.998;6.250;2023-07-30T09:12:29;18.00;99.90
16666;DHT22;8446;50.998;6.250;2023-07-30T09:14:56;18.20;99.90
16666;DHT22;8446;50.998;6.250;2023-07-30T09:17:22;18.30;99.90
16666;DHT22;8446;50.998;6.250;2023-07-30T09:19:50;18.10;99.90
16666;DHT22;8446;50.998;6.250;2023-07-30T09:22:24;18.20;99.90
16666;DHT22;8446;50.998;6.250;2023-07-30T09:24:52;18.10;99.90
16666;DHT22;8446;50.998;6.250;2023-07-30T09:27:20;18.60;99.90
16666;DHT22;8446;50.998;6.250;2023-07-30T09:29:51;18.80;99.90
16666;DHT22;8446;50.998;6.250;2023-07-30T09:32:19;18.90;99.90
16666;DHT22;8446;50.998;6.250;2023-07-30T09:34:46;19.10;99.90
16666;DHT22;8446;50.998;6.250;2023-07-30T09:37:13;18.80;99.90
16666;DHT22;8446;50.998;6.250;2023-07-30T09:39:42;19.20;99.90
16666;DHT22;8446;50.998;6.250;2023-07-30T09:42:09;19.70;99.90
16666;DHT22;8446;50.998;6.250;2023-07-30T09:44:37;19.80;99.90
16666;DHT22;8446;50.998;6.250;2023-07-30T09:47:05;19.30;99.90
16666;DHT22;8446;50.998;6.250;2023-07-30T09:49:35;19.20;99.90
16666;DHT22;8446;50.998;6.250;2023-07-30T09:52:03;18.80;99.90
16666;DHT22;8446;50.998;6.250;2023-07-30T09:54:31;19.00;99.90
16666;DHT22;8446;50.998;6.250;2023-07-30T09:56:59;19.20;99.90
16666;DHT22;8446;50.998;6.250;2023-07-30T09:59:26;19.00;99.90
16666;DHT22;8446;50.998;6.250;2023-07-30T10:01:53;18.80;99.90
16666;DHT22;8446;50.998;6.250;2023-07-30T10:04:21;18.70;99.90
16666;DHT22;8446;50.998;6.250;2023-07-30T10:06:52;18.60;99.90
16666;DHT22;8446;50.998;6.250;2023-07-30T10:09:22;18.70;99.90
16666;DHT22;8446;50.998;6.250;2023-07-30T10:11:51;19.00;99.90
16666;DHT22;8446;50.998;6.250;2023-07-30T10:14:22;19.30;99.90
16666;DHT22;8446;50.998;6.250;2023-07-30T10:16:52;19.40;99.90
16666;DHT22;8446;50.998;6.250;2023-07-30T10:19:22;19.20;99.90
16666;DHT22;8446;50.998;6.250;2023-07-30T10:21:49;19.10;99.90
16666;DHT22;8446;50.998;6.250;2023-07-30T10:24:16;18.90;99.90
16666;DHT22;8446;50.998;6.250;2023-07-30T10:26:42;19.20;99.90
16666;DHT22;8446;50.998;6.250;2023-07-30T10:29:13;19.20;99.90
16666;DHT22;8446;50.998;6.250;2023-07-30T10:31:42;19.20;99.90
16666;DHT22;8446;50.998;6.250;2023-07-30T10:34:10;19.10;99.90
16666;DHT22;8446;50.998;6.250;2023-07-30T10:36:43;19.30;99.90
16666;DHT22;8446;50.998;6.250;2023-07-30T10:39:12;19.40;99.90
16666;DHT22;8446;50.998;6.250;2023-07-30T10:41:39;19.30;99.90
16666;DHT22;8446;50.998;6.250;2023-07-30T10:44:06;19.20;99.90
16666;DHT22;8446;50.998;6.250;2023-07-30T10:46:33;19.20;99.90
16666;DHT22;8446;50.998;6.250;2023-07-30T10:49:03;19.00;99.90
16666;DHT22;8446;50.998;6.250;2023-07-30T10:51:32;18.70;99.90
16666;DHT22;8446;50.998;6.250;2023-07-30T10:53:59;18.80;99.90
16666;DHT22;8446;50.998;6.250;2023-07-30T10:56:26;19.00;99.90
16666;DHT22;8446;50.998;6.250;2023-07-30T10:58:53;19.30;99.90
16666;DHT22;8446;50.998;6.250;2023-07-30T11:01:24;19.20;99.90
16666;DHT22;8446;50.998;6.250;2023-07-30T11:03:52;18.90;99.90
16666;DHT22;8446;50.998;6.250;2023-07-30T11:06:24;18.80;99.90
16666;DHT22;8446;50.998;6.250;2023-07-30T11:08:51;19.00;99.90
16666;DHT22;8446;50.998;6.250;2023-07-30T11:11:17;19.00;99.90
16666;DHT22;8446;50.998;6.250;2023-07-30T11:13:45;19.10;99.90
16666;DHT22;8446;50.998;6.250;2023-07-30T11:16:13;18.90;99.90
16666;DHT22;8446;50.998;6.250;2023-07-30T11:18:41;18.70;99.90
16666;DHT22;8446;50.998;6.250;2023-07-30T11:21:10;18.70;99.90
16666;DHT22;8446;50.998;6.250;2023-07-30T11:23:39;18.70;99.90
16666;DHT22;8446;50.998;6.250;2023-07-30T11:26:08;18.50;99.90
16666;DHT22;8446;50.998;6.250;2023-07-30T11:28:36;18.40;99.90
16666;DHT22;8446;50.998;6.250;2023-07-30T11:31:05;18.20;99.90
16666;DHT22;8446;50.998;6.250;2023-07-30T11:33:32;17.50;99.90
16666;DHT22;8446;50.998;6.250;2023-07-30T11:36:00;16.30;99.90
16666;DHT22;8446;50.998;6.250;2023-07-30T11:38:29;16.10;99.90
16666;DHT22;8446;50.998;6.250;2023-07-30T11:40:58;16.20;99.90
16666;DHT22;8446;50.998;6.250;2023-07-30T11:43:25;16.30;99.90
16666;DHT22;8446;50.998;6.250;2023-07-30T11:46:06;16.50;99.90
16666;DHT22;8446;50.998;6.250;2023-07-30T11:48:34;16.70;99.90
16666;DHT22;8446;50.998;6.250;2023-07-30T11:51:01;16.90;99.90
16666;DHT22;8446;50.998;6.250;2023-07-30T11:53:49;17.20;99.90
16666;DHT22;8446;50.998;6.250;2023-07-30T11:56:20;17.40;99.90
16666;DHT22;8446;50.998;6.250;2023-07-30T11:58:49;17.60;99.90
16666;DHT22;8446;50.998;6.250;2023-07-30T12:01:16;17.70;99.90
16666;DHT22;8446;50.998;6.250;2023-07-30T12:03:43;17.70;99.90
16666;DHT22;8446;50.998;6.250;2023-07-30T12:06:11;17.70;99.90
16666;DHT22;8446;50.998;6.250;2023-07-30T12:08:38;18.00;99.90
16666;DHT22;8446;50.998;6.250;2023-07-30T12:11:06;18.30;99.90
16666;DHT22;8446;50.998;6.250;2023-07-30T12:13:42;18.60;99.90
16666;DHT22;8446;50.998;6.250;2023-07-30T12:16:09;18.30;99.90
16666;DHT22;8446;50.998;6.250;2023-07-30T12:18:37;18.30;99.90
16666;DHT22;8446;50.998;6.250;2023-07-30T12:21:04;18.30;99.90
16666;DHT22;8446;50.998;6.250;2023-07-30T12:23:33;17.90;99.90
16666;DHT22;8446;50.998;6.250;2023-07-30T12:26:00;17.60;99.90
16666;DHT22;8446;50.998;6.250;2023-07-30T12:28:30;17.50;99.90
16666;DHT22;8446;50.998;6.250;2023-07-30T12:30:58;17.60;99.90
16666;DHT22;8446;50.998;6.250;2023-07-30T12:33:25;17.60;99.90
16666;DHT22;8446;50.998;6.250;2023-07-30T12:35:51;18.00;99.90
16666;DHT22;8446;50.998;6.250;2023-07-30T12:38:18;18.40;99.90
16666;DHT22;8446;50.998;6.250;2023-07-30T12:40:45;18.90;99.90
16666;DHT22;8446;50.998;6.250;2023-07-30T12:43:12;19.20;99.90
16666;DHT22;8446;50.998;6.250;2023-07-30T12:45:38;19.30;99.90
16666;DHT22;8446;50.998;6.250;2023-07-30T12:48:07;19.50;99.90
16666;DHT22;8446;50.998;6.250;2023-07-30T12:50:33;19.70;99.90
16666;DHT22;8446;50.998;6.250;2023-07-30T12:53:00;19.90;99.90
16666;DHT22;8446;50.998;6.250;2023-07-30T12:55:27;20.20;99.90
16666;DHT22;8446;50.998;6.250;2023-07-30T12:57:54;20.30;99.90
16666;DHT22;8446;50.998;6.250;2023-07-30T13:00:20;20.10;99.90
16666;DHT22;8446;50.998;6.250;2023-07-30T13:02:47;20.60;99.90
16666;DHT22;8446;50.998;6.250;2023-07-30T13:05:17;20.20;99.90
16666;DHT22;8446;50.998;6.250;2023-07-30T13:07:44;19.80;99.90
16666;DHT22;8446;50.998;6.250;2023-07-30T13:10:11;19.60;99.90
16666;DHT22;8446;50.998;6.250;2023-07-30T13:12:38;19.60;99.90
16666;DHT22;8446;50.998;6.250;2023-07-30T13:15:05;19.50;99.90
16666;DHT22;8446;50.998;6.250;2023-07-30T13:17:32;19.50;99.90
16666;DHT22;8446;50.998;6.250;2023-07-30T13:19:59;19.30;99.90
16666;DHT22;8446;50.998;6.250;2023-07-30T13:22:27;19.10;99.90
16666;DHT22;8446;50.998;6.250;2023-07-30T13:24:54;19.90;99.90
16666;DHT22;8446;50.998;6.250;2023-07-30T13:27:21;20.20;99.90
16666;DHT22;8446;50.998;6.250;2023-07-30T13:29:47;20.50;99.90
16666;DHT22;8446;50.998;6.250;2023-07-30T13:32:14;20.90;99.90
16666;DHT22;8446;50.998;6.250;2023-07-30T13:34:41;20.90;99.90
16666;DHT22;8446;50.998;6.250;2023-07-30T13:37:08;20.80;99.90
16666;DHT22;8446;50.998;6.250;2023-07-30T13:39:36;20.90;99.90
16666;DHT22;8446;50.998;6.250;2023-07-30T13:42:03;21.30;98.90
16666;DHT22;8446;50.998;6.250;2023-07-30T13:44:30;21.10;97.30
16666;DHT22;8446;50.998;6.250;2023-07-30T13:46:57;21.10;98.30
16666;DHT22;8446;50.998;6.250;2023-07-30T13:49:24;21.10;99.10
16666;DHT22;8446;50.998;6.250;2023-07-30T13:51:50;21.30;99.90
16666;DHT22;8446;50.998;6.250;2023-07-30T13:54:17;21.20;98.40
16666;DHT22;8446;50.998;6.250;2023-07-30T13:56:45;21.50;99.30
16666;DHT22;8446;50.998;6.250;2023-07-30T13:59:12;21.90;98.80
16666;DHT22;8446;50.998;6.250;2023-07-30T14:01:39;21.70;97.60
16666;DHT22;8446;50.998;6.250;2023-07-30T14:04:06;21.80;97.00
16666;DHT22;8446;50.998;6.250;2023-07-30T14:06:32;21.80;97.10
16666;DHT22;8446;50.998;6.250;2023-07-30T14:08:59;21.90;96.30
16666;DHT22;8446;50.998;6.250;2023-07-30T14:11:26;21.90;96.60
16666;DHT22;8446;50.998;6.250;2023-07-30T14:13:55;22.20;99.30
16666;DHT22;8446;50.998;6.250;2023-07-30T14:16:23;21.70;97.80
16666;DHT22;8446;50.998;6.250;2023-07-30T14:18:50;21.30;97.50
16666;DHT22;8446;50.998;6.250;2023-07-30T14:21:16;20.80;98.90
16666;DHT22;8446;50.998;6.250;2023-07-30T14:23:43;20.70;98.10
16666;DHT22;8446;50.998;6.250;2023-07-30T14:26:10;20.60;97.80
16666;DHT22;8446;50.998;6.250;2023-07-30T14:28:37;20.80;98.70
16666;DHT22;8446;50.998;6.250;2023-07-30T14:31:05;21.00;98.00
16666;DHT22;8446;50.998;6.250;2023-07-30T14:33:32;21.40;97.20
16666;DHT22;8446;50.998;6.250;2023-07-30T14:35:59;22.10;97.10
16666;DHT22;8446;50.998;6.250;2023-07-30T14:38:25;21.80;95.80
16666;DHT22;8446;50.998;6.250;2023-07-30T14:40:52;21.60;96.10
16666;DHT22;8446;50.998;6.250;2023-07-30T14:43:19;21.50;96.30
16666;DHT22;8446;50.998;6.250;2023-07-30T14:45:46;21.70;95.30
16666;DHT22;8446;50.998;6.250;2023-07-30T14:48:14;22.00;95.40
16666;DHT22;8446;50.998;6.250;2023-07-30T14:50:40;21.90;95.40
16666;DHT22;8446;50.998;6.250;2023-07-30T14:53:07;22.00;94.80
16666;DHT22;8446;50.998;6.250;2023-07-30T14:55:34;22.40;95.20
16666;DHT22;8446;50.998;6.250;2023-07-30T14:58:01;22.30;95.20
16666;DHT22;8446;50.998;6.250;2023-07-30T15:00:29;22.40;95.40
16666;DHT22;8446;50.998;6.250;2023-07-30T15:02:55;22.40;96.80
16666;DHT22;8446;50.998;6.250;2023-07-30T15:05:24;21.80;95.40
16666;DHT22;8446;50.998;6.250;2023-07-30T15:07:50;21.40;96.20
16666;DHT22;8446;50.998;6.250;2023-07-30T15:10:17;21.20;97.50
16666;DHT22;8446;50.998;6.250;2023-07-30T15:12:44;21.50;95.50
16666;DHT22;8446;50.998;6.250;2023-07-30T15:15:11;22.10;95.10
16666;DHT22;8446;50.998;6.250;2023-07-30T15:17:37;22.80;93.90
16666;DHT22;8446;50.998;6.250;2023-07-30T15:20:05;22.70;93.00
16666;DHT22;8446;50.998;6.250;2023-07-30T15:22:33;22.40;92.90
16666;DHT22;8446;50.998;6.250;2023-07-30T15:25:00;21.80;93.70
16666;DHT22;8446;50.998;6.250;2023-07-30T15:27:27;21.60;95.40
16666;DHT22;8446;50.998;6.250;2023-07-30T15:29:54;21.90;96.50
16666;DHT22;8446;50.998;6.250;2023-07-30T15:32:21;22.40;93.00
16666;DHT22;8446;50.998;6.250;2023-07-30T15:34:48;22.50;93.90
16666;DHT22;8446;50.998;6.250;2023-07-30T15:37:15;22.10;94.30
16666;DHT22;8446;50.998;6.250;2023-07-30T15:39:43;21.40;94.80
16666;DHT22;8446;50.998;6.250;2023-07-30T15:42:10;22.10;94.60
16666;DHT22;8446;50.998;6.250;2023-07-30T15:44:37;21.90;94.50
16666;DHT22;8446;50.998;6.250;2023-07-30T15:47:04;21.70;94.60